Time;durP1;ratioP1;P1;durP2;ratioP2;P2;SDS_P1;SDS_P2;PMS_P1;PMS_P2;Temp;Humidity;BMP_temperature;BMP_pressure;BME280_temperature;BME280_humidity;BME280_pressure;Samples;Min_cycle;Max_cycle;Signal;HPM_P1;HPM_P2
2021/12/30 00:01:48;;;;;;;;;;;;;;;16.15;73.16;101080.47;4985987;28;19994;-88
2021/12/30 00:04:14;;;;;;;;;;;;;;;15.85;74.60;101081.56;4987182;28;19914;-89
2021/12/30 00:06:40;;;;;;;;;;;;;;;15.78;74.13;101077.47;4971511;28;19925;-88
2021/12/30 00:09:10;;;;;;;;;;;;;;;16.47;71.19;101086.47;4969597;28;19922;-88
2021/12/30 00:11:36;;;;;;;;;;;;;;;17.47;67.09;101081.31;4970254;28;19922;-89
2021/12/30 00:14:02;;;;;;;;;;;;;;;16.40;69.79;101076.09;4969030;28;19930;-88
2021/12/30 00:16:27;;;;;;;;;;;;;;;17.89;63.68;101070.94;4968842;28;19922;-87
2021/12/30 00:18:52;;;;;;;;;;;;;;;17.84;63.14;101073.09;4986465;28;19957;-87
2021/12/30 00:21:20;;;;;;;;;;;;;;;16.87;66.62;101077.41;4972293;28;20352;-86
2021/12/30 00:23:45;;;;;;;;;;;;;;;16.30;68.96;101084.91;4972818;28;19922;-89
2021/12/30 00:26:10;;;;;;;;;;;;;;;17.10;66.47;101080.34;4970323;28;19941;-87
2021/12/30 00:28:36;;;;;;;;;;;;;;;17.11;66.30;101079.38;4985353;28;19965;-89
2021/12/30 00:31:01;;;;;;;;;;;;;;;16.95;68.63;101076.84;4985365;28;20379;-88
2021/12/30 00:33:27;;;;;;;;;;;;;;;16.92;68.06;101068.88;4986225;28;19929;-88
2021/12/30 00:35:53;;;;;;;;;;;;;;;17.25;67.55;101078.38;4985198;28;20430;-87
2021/12/30 00:38:19;;;;;;;;;;;;;;;16.69;68.89;101068.59;4970487;28;19922;-89
2021/12/30 00:40:44;;;;;;;;;;;;;;;17.32;67.62;101077.81;4970701;28;19914;-87
2021/12/30 00:43:10;;;;;;;;;;;;;;;16.81;68.39;101083.25;4970863;28;19961;-88
2021/12/30 00:45:35;;;;;;;;;;;;;;;16.56;70.07;101075.88;4988154;28;19922;-87
2021/12/30 00:48:01;;;;;;;;;;;;;;;17.09;69.30;101079.50;4987798;28;19906;-89
2021/12/30 00:50:27;;;;;;;;;;;;;;;17.30;67.97;101082.53;4970441;28;19918;-87
2021/12/30 00:52:53;;;;;;;;;;;;;;;17.10;69.34;101073.00;4969776;28;19945;-87
2021/12/30 00:55:18;;;;;;;;;;;;;;;17.45;68.97;101071.44;4969865;28;20001;-89
2021/12/30 00:57:44;;;;;;;;;;;;;;;16.76;71.78;101071.78;4970570;28;19919;-88
2021/12/30 01:00:11;;;;;;;;;;;;;;;17.79;67.62;101079.94;4969891;28;20405;-88
2021/12/30 01:02:36;;;;;;;;;;;;;;;17.11;70.87;101082.13;4969915;28;19918;-89
2021/12/30 01:05:02;;;;;;;;;;;;;;;17.10;66.90;101077.63;4985901;28;19945;-89
2021/12/30 01:07:27;;;;;;;;;;;;;;;17.10;70.19;101083.09;4968303;28;19918;-89
2021/12/30 01:09:52;;;;;;;;;;;;;;;17.41;69.26;101069.91;4981682;28;20361;-88
2021/12/30 01:12:19;;;;;;;;;;;;;;;17.33;69.61;101074.13;4965151;28;19953;-88
2021/12/30 01:14:47;;;;;;;;;;;;;;;16.98;69.89;101082.09;4964827;28;19922;-88
2021/12/30 01:17:27;;;;;;;;;;;;;;;16.48;72.23;101070.97;4982877;28;19977;-88
2021/12/30 01:19:53;;;;;;;;;;;;;;;16.91;72.22;101078.03;4965337;28;19918;-88
2021/12/30 01:22:21;;;;;;;;;;;;;;;17.53;69.53;101058.09;4983309;28;19915;-87
2021/12/30 01:24:47;;;;;;;;;;;;;;;17.15;70.89;101072.69;4965668;28;20336;-89
2021/12/30 01:27:12;;;;;;;;;;;;;;;16.46;73.55;101083.84;4964876;28;19934;-87
2021/12/30 01:29:37;;;;;;;;;;;;;;;17.47;70.74;101075.84;4982567;28;20012;-87
2021/12/30 01:32:03;;;;;;;;;;;;;;;16.98;71.73;101096.66;4965074;28;19925;-87
2021/12/30 01:34:28;;;;;;;;;;;;;;;16.87;73.28;101102.00;4964695;28;20423;-88
2021/12/30 01:36:54;;;;;;;;;;;;;;;17.12;71.59;101113.91;4964952;28;19918;-89
2021/12/30 01:39:22;;;;;;;;;;;;;;;16.91;72.47;101114.47;4965560;28;19973;-88
2021/12/30 01:41:48;;;;;;;;;;;;;;;16.77;74.01;101128.16;4965553;28;20273;-88
2021/12/30 01:44:13;;;;;;;;;;;;;;;17.20;71.73;101138.88;4964931;28;19973;-87
2021/12/30 01:46:40;;;;;;;;;;;;;;;17.01;73.76;101142.00;4964416;28;19918;-87
2021/12/30 01:49:06;;;;;;;;;;;;;;;17.74;69.30;101142.31;4964706;28;19953;-88
2021/12/30 01:51:31;;;;;;;;;;;;;;;18.01;65.91;101134.84;4963045;28;19926;-87
2021/12/30 01:53:57;;;;;;;;;;;;;;;18.24;66.14;101129.50;4964068;28;19914;-88
2021/12/30 01:56:22;;;;;;;;;;;;;;;16.72;72.37;101139.41;4964337;28;19918;-88
2021/12/30 01:58:47;;;;;;;;;;;;;;;18.03;67.86;101132.00;4980700;28;20377;-87
2021/12/30 02:01:12;;;;;;;;;;;;;;;18.34;65.76;101143.38;4978940;28;19919;-89
2021/12/30 02:03:38;;;;;;;;;;;;;;;17.93;67.89;101131.78;4963997;28;19982;-88
2021/12/30 02:06:03;;;;;;;;;;;;;;;18.15;66.57;101124.72;4963352;28;19914;-89
2021/12/30 02:08:28;;;;;;;;;;;;;;;17.55;69.67;101132.72;4962577;28;19918;-88
2021/12/30 02:10:54;;;;;;;;;;;;;;;16.88;73.11;101139.28;4964029;28;19918;-88
2021/12/30 02:13:19;;;;;;;;;;;;;;;18.08;68.74;101129.78;4962797;28;19949;-88
2021/12/30 02:15:44;;;;;;;;;;;;;;;17.64;69.61;101129.31;4963004;28;19923;-88
2021/12/30 02:18:10;;;;;;;;;;;;;;;17.38;70.37;101135.78;4963650;28;20017;-88
2021/12/30 02:20:46;;;;;;;;;;;;;;;17.35;72.40;101132.28;4963557;28;19929;-88
2021/12/30 02:23:17;;;;;;;;;;;;;;;18.13;66.90;101119.38;4967285;28;19941;-89
2021/12/30 02:25:42;;;;;;;;;;;;;;;17.46;69.84;101119.72;4968080;28;19918;-89
2021/12/30 02:28:11;;;;;;;;;;;;;;;18.22;67.96;101120.53;4966993;28;19922;-88
2021/12/30 02:30:37;;;;;;;;;;;;;;;17.87;67.70;101129.47;4966879;28;19974;-88
2021/12/30 02:33:03;;;;;;;;;;;;;;;17.64;68.74;101132.03;4967784;28;19953;-89
2021/12/30 02:35:29;;;;;;;;;;;;;;;17.71;68.47;101133.34;4968519;28;19926;-88
2021/12/30 02:37:54;;;;;;;;;;;;;;;17.04;71.52;101141.78;4968011;28;20008;-90
2021/12/30 02:40:31;;;;;;;;;;;;;;;18.19;67.53;101145.41;4967879;28;20393;-87
2021/12/30 02:42:57;;;;;;;;;;;;;;;17.66;69.48;101151.97;4967946;28;20435;-89
2021/12/30 02:45:22;;;;;;;;;;;;;;;17.46;71.23;101147.06;4967498;28;19972;-89
2021/12/30 02:47:56;;;;;;;;;;;;;;;18.99;63.66;101149.41;4967522;28;19973;-89
2021/12/30 02:50:21;;;;;;;;;;;;;;;18.03;68.46;101151.16;4970123;28;19918;-88
2021/12/30 02:52:47;;;;;;;;;;;;;;;17.88;67.77;101159.47;4965960;28;19921;-90
2021/12/30 02:55:12;;;;;;;;;;;;;;;17.86;69.18;101146.88;4983569;28;19918;-88
2021/12/30 02:57:37;;;;;;;;;;;;;;;18.13;68.74;101149.50;4966660;28;19918;-89
2021/12/30 03:00:04;;;;;;;;;;;;;;;18.32;66.70;101143.50;4986297;28;19914;-88
2021/12/30 03:02:29;;;;;;;;;;;;;;;17.95;69.69;101146.25;4967637;28;20376;-89
2021/12/30 03:04:54;;;;;;;;;;;;;;;17.34;72.63;101149.69;4967659;28;19916;-88
2021/12/30 03:07:20;;;;;;;;;;;;;;;16.94;73.83;101143.41;4966766;28;19942;-89
2021/12/30 03:09:45;;;;;;;;;;;;;;;17.88;70.38;101161.34;4965842;28;19922;-88
2021/12/30 03:12:10;;;;;;;;;;;;;;;17.87;69.25;101137.69;4966685;28;19919;-88
2021/12/30 03:14:42;;;;;;;;;;;;;;;18.03;70.06;101137.47;4983618;28;20332;-87
2021/12/30 03:17:08;;;;;;;;;;;;;;;16.82;73.81;101142.41;4987249;28;19918;-87
2021/12/30 03:19:33;;;;;;;;;;;;;;;18.09;69.94;101136.13;4973604;28;19925;-86
2021/12/30 03:21:59;;;;;;;;;;;;;;;17.52;73.00;101143.88;4972509;28;19918;-87
2021/12/30 03:24:24;;;;;;;;;;;;;;;17.15;73.73;101138.28;4967864;28;19925;-88
2021/12/30 03:26:49;;;;;;;;;;;;;;;17.66;72.58;101151.09;4967896;28;19918;-88
2021/12/30 03:29:14;;;;;;;;;;;;;;;17.56;72.01;101145.41;4966849;28;19929;-87
2021/12/30 03:31:40;;;;;;;;;;;;;;;16.86;75.28;101143.91;4965704;28;20399;-86
2021/12/30 03:34:05;;;;;;;;;;;;;;;17.54;73.56;101148.28;4967017;28;20335;-88
2021/12/30 03:36:32;;;;;;;;;;;;;;;17.93;71.33;101137.25;4984749;28;20377;-87
2021/12/30 03:38:57;;;;;;;;;;;;;;;18.70;66.94;101130.59;4968463;28;19928;-89
2021/12/30 03:41:24;;;;;;;;;;;;;;;18.02;71.53;101142.06;4983925;28;19906;-88
2021/12/30 03:43:49;;;;;;;;;;;;;;;17.63;71.61;101145.84;4966338;28;19927;-87
2021/12/30 03:46:15;;;;;;;;;;;;;;;17.54;72.51;101155.56;4965024;28;19965;-85
2021/12/30 03:48:43;;;;;;;;;;;;;;;17.11;74.51;101169.59;4965106;28;20361;-87
2021/12/30 03:51:11;;;;;;;;;;;;;;;18.02;71.57;101174.91;4965817;28;20292;-86
2021/12/30 03:53:39;;;;;;;;;;;;;;;18.04;72.11;101162.00;4983013;28;19927;-90
2021/12/30 03:56:10;;;;;;;;;;;;;;;17.40;71.40;101167.50;4965184;28;19918;-87
2021/12/30 03:58:35;;;;;;;;;;;;;;;17.11;73.83;101180.53;4965171;28;19958;-87
2021/12/30 04:01:01;;;;;;;;;;;;;;;17.70;71.35;101161.69;4965345;28;19918;-88
2021/12/30 04:03:27;;;;;;;;;;;;;;;17.83;70.34;101163.53;4965251;28;19925;-88
2021/12/30 04:05:52;;;;;;;;;;;;;;;17.09;74.07;101168.81;4980956;28;19922;-87
2021/12/30 04:08:17;;;;;;;;;;;;;;;18.01;71.85;101164.06;4964292;28;19973;-89
2021/12/30 04:10:42;;;;;;;;;;;;;;;18.54;67.80;101155.53;4966664;28;20276;-88
2021/12/30 04:13:08;;;;;;;;;;;;;;;17.51;71.08;101159.44;4965919;28;19926;-88
2021/12/30 04:15:33;;;;;;;;;;;;;;;18.26;68.54;101160.38;4965708;28;19918;-88
2021/12/30 04:17:58;;;;;;;;;;;;;;;18.13;69.16;101159.56;4965057;28;20382;-87
2021/12/30 04:20:23;;;;;;;;;;;;;;;17.44;71.33;101163.59;4964742;28;19925;-89
2021/12/30 04:22:49;;;;;;;;;;;;;;;17.88;70.84;101164.94;4964584;28;20304;-88
2021/12/30 04:25:15;;;;;;;;;;;;;;;18.76;67.97;101161.13;4964777;28;19925;-86
2021/12/30 04:27:40;;;;;;;;;;;;;;;17.39;71.18;101163.03;4965748;28;20288;-88
2021/12/30 04:30:07;;;;;;;;;;;;;;;18.15;69.26;101154.84;4966344;28;19922;-88
2021/12/30 04:32:32;;;;;;;;;;;;;;;17.94;70.03;101171.00;4965065;28;20017;-89
2021/12/30 04:34:57;;;;;;;;;;;;;;;17.76;70.98;101162.25;4965464;28;20399;-87
2021/12/30 04:37:22;;;;;;;;;;;;;;;17.13;73.83;101170.34;4964787;28;20004;-87
2021/12/30 04:39:48;;;;;;;;;;;;;;;17.66;73.27;101170.25;4965228;28;19922;-88
2021/12/30 04:42:13;;;;;;;;;;;;;;;17.48;72.47;101170.59;4981777;28;19918;-87
2021/12/30 04:44:38;;;;;;;;;;;;;;;17.67;71.49;101174.72;4964311;28;20086;-88
2021/12/30 04:47:05;;;;;;;;;;;;;;;17.95;70.69;101167.25;4965416;28;19946;-88
2021/12/30 04:49:30;;;;;;;;;;;;;;;17.52;71.28;101154.81;4964988;28;19902;-87
2021/12/30 04:51:55;;;;;;;;;;;;;;;17.65;72.14;101172.09;4965387;28;19925;-88
2021/12/30 04:54:20;;;;;;;;;;;;;;;18.09;70.36;101169.88;4967196;28;19913;-89
2021/12/30 04:56:46;;;;;;;;;;;;;;;17.27;73.00;101164.78;4969221;28;20001;-89
2021/12/30 04:59:11;;;;;;;;;;;;;;;17.91;72.01;101172.09;4986118;28;19918;-87
2021/12/30 05:01:38;;;;;;;;;;;;;;;17.13;73.13;101168.47;4968066;28;19969;-87
2021/12/30 05:04:04;;;;;;;;;;;;;;;18.28;67.96;101168.50;4968089;28;19914;-88
2021/12/30 05:06:31;;;;;;;;;;;;;;;17.41;73.48;101162.91;4967542;28;19929;-88
2021/12/30 05:08:57;;;;;;;;;;;;;;;18.04;70.96;101161.09;4968261;28;19918;-88
2021/12/30 05:11:22;;;;;;;;;;;;;;;17.85;71.36;101161.56;4985427;28;19996;-87
2021/12/30 05:13:47;;;;;;;;;;;;;;;17.48;71.82;101162.38;4967918;28;19977;-88
2021/12/30 05:16:13;;;;;;;;;;;;;;;17.57;72.79;101163.56;4985080;28;19918;-88
2021/12/30 05:18:40;;;;;;;;;;;;;;;17.16;72.42;101171.00;4967085;28;20013;-88
2021/12/30 05:21:05;;;;;;;;;;;;;;;17.52;73.90;101176.72;4968155;28;20008;-88
2021/12/30 05:23:31;;;;;;;;;;;;;;;16.93;74.63;101177.22;4968208;28;19918;-89
2021/12/30 05:25:57;;;;;;;;;;;;;;;17.89;70.97;101169.47;4968405;28;19918;-89
2021/12/30 05:28:23;;;;;;;;;;;;;;;17.24;73.88;101177.78;4985151;28;20372;-87
2021/12/30 05:30:48;;;;;;;;;;;;;;;17.08;74.56;101180.75;4966832;28;19918;-87
2021/12/30 05:33:14;;;;;;;;;;;;;;;17.84;71.41;101173.50;4984346;28;19914;-87
2021/12/30 05:35:39;;;;;;;;;;;;;;;17.47;72.34;101166.09;4983296;28;19925;-87
2021/12/30 05:38:04;;;;;;;;;;;;;;;17.90;70.95;101156.66;4984894;28;19940;-87
2021/12/30 05:40:30;;;;;;;;;;;;;;;16.74;74.95;101142.03;4968521;28;19921;-88
2021/12/30 05:42:55;;;;;;;;;;;;;;;17.11;75.07;101161.38;4984952;28;19934;-88
2021/12/30 05:45:21;;;;;;;;;;;;;;;17.24;74.24;101153.19;4968390;28;19918;-87
2021/12/30 05:47:48;;;;;;;;;;;;;;;17.46;73.17;101174.41;4967139;28;19933;-87
2021/12/30 05:50:22;;;;;;;;;;;;;;;18.00;70.45;101156.88;4984835;28;19925;-88
2021/12/30 05:52:47;;;;;;;;;;;;;;;17.27;73.79;101169.38;4968081;28;19921;-89
2021/12/30 05:55:13;;;;;;;;;;;;;;;17.52;70.46;101179.44;4966538;28;19918;-92
2021/12/30 05:57:39;;;;;;;;;;;;;;;17.27;74.31;101196.72;4967666;28;19914;-91
2021/12/30 06:00:05;;;;;;;;;;;;;;;17.35;73.08;101189.72;4970424;28;19918;-90
2021/12/30 06:02:30;;;;;;;;;;;;;;;17.43;73.69;101207.47;4962310;28;19924;-88
2021/12/30 06:04:57;;;;;;;;;;;;;;;16.92;75.38;101200.91;4962778;28;19981;-88
2021/12/30 06:07:23;;;;;;;;;;;;;;;17.08;74.74;101198.00;4962682;28;19925;-87
2021/12/30 06:09:49;;;;;;;;;;;;;;;17.48;72.73;101206.16;4980702;28;20368;-87
2021/12/30 06:12:15;;;;;;;;;;;;;;;17.02;74.65;101203.03;4963290;28;19926;-87
2021/12/30 06:14:40;;;;;;;;;;;;;;;17.67;72.37;101199.34;4970570;28;19926;-87
2021/12/30 06:17:06;;;;;;;;;;;;;;;17.24;74.13;101219.69;4988460;28;19961;-86
2021/12/30 06:19:32;;;;;;;;;;;;;;;17.65;73.53;101221.34;4965361;28;19925;-88
2021/12/30 06:21:57;;;;;;;;;;;;;;;17.18;73.31;101209.16;4962850;28;19918;-88
2021/12/30 06:24:23;;;;;;;;;;;;;;;18.16;70.61;101219.56;4963737;28;20300;-86
2021/12/30 06:26:48;;;;;;;;;;;;;;;16.76;75.32;101222.94;4980973;28;20360;-88
2021/12/30 06:29:14;;;;;;;;;;;;;;;17.39;73.31;101225.06;4963112;28;19918;-88
2021/12/30 06:31:40;;;;;;;;;;;;;;;17.49;74.52;101227.03;4963192;28;19928;-89
2021/12/30 06:34:05;;;;;;;;;;;;;;;16.45;77.08;101208.59;4964744;28;19973;-89
2021/12/30 06:36:30;;;;;;;;;;;;;;;17.31;73.56;101231.94;4961830;28;19925;-90
2021/12/30 06:38:56;;;;;;;;;;;;;;;16.90;74.67;101230.22;4980747;28;19918;-89
2021/12/30 06:41:21;;;;;;;;;;;;;;;17.71;73.01;101223.66;4963583;28;19948;-89
2021/12/30 06:44:45;;;;;;;;;;;;;;;-147.53;100.00;59759.91;4982804;28;19933;-93
2021/12/30 06:48:13;;;;;;;;;;;;;;;-147.53;100.00;59759.91;4983603;28;19929;-87
2021/12/30 06:51:37;;;;;;;;;;;;;;;-147.53;100.00;59759.91;4966290;28;19925;-92
2021/12/30 06:55:02;;;;;;;;;;;;;;;-147.53;100.00;59759.91;4982549;28;19925;-92
2021/12/30 06:57:28;;;;;;;;;;;;;;;17.38;73.17;101247.91;4963467;28;19918;-91
2021/12/30 06:59:53;;;;;;;;;;;;;;;16.59;76.13;101254.13;4962593;28;19969;-89
2021/12/30 07:02:19;;;;;;;;;;;;;;;17.33;73.36;101254.59;4963957;28;19906;-89
2021/12/30 07:04:44;;;;;;;;;;;;;;;16.10;79.93;101238.22;4964779;28;19945;-90
2021/12/30 07:07:09;;;;;;;;;;;;;;;16.91;75.51;101245.63;4965067;28;19929;-91
2021/12/30 07:09:35;;;;;;;;;;;;;;;15.59;80.21;101241.38;4984303;28;20017;-91
2021/12/30 07:12:00;;;;;;;;;;;;;;;17.17;75.81;101234.78;4966263;28;20006;-90
2021/12/30 07:14:25;;;;;;;;;;;;;;;16.95;77.11;101241.72;4969245;28;20436;-89
2021/12/30 07:16:52;;;;;;;;;;;;;;;16.50;79.16;101242.91;4970844;28;19992;-89
2021/12/30 07:19:21;;;;;;;;;;;;;;;16.51;77.38;101245.53;4974984;28;19914;-89
2021/12/30 07:21:47;;;;;;;;;;;;;;;17.68;72.78;101250.38;4972808;28;19918;-92
2021/12/30 07:24:12;;;;;;;;;;;;;;;17.32;73.70;101251.97;4990457;28;19914;-89
2021/12/30 07:26:38;;;;;;;;;;;;;;;17.07;75.78;101267.31;4987493;28;19922;-91
2021/12/30 07:29:03;;;;;;;;;;;;;;;16.10;78.18;101279.16;4966934;28;20013;-91
2021/12/30 07:31:29;;;;;;;;;;;;;;;16.33;78.05;101271.34;4970459;28;19921;-89
2021/12/30 07:33:54;;;;;;;;;;;;;;;16.98;74.50;101287.97;4968643;28;19922;-89
2021/12/30 07:36:19;;;;;;;;;;;;;;;17.21;73.76;101299.22;4970531;28;19919;-91
2021/12/30 07:38:44;;;;;;;;;;;;;;;17.23;74.21;101290.91;4972381;28;19973;-90
2021/12/30 07:41:12;;;;;;;;;;;;;;;16.73;75.46;101298.78;4968912;28;19906;-90
2021/12/30 07:43:37;;;;;;;;;;;;;;;16.62;75.34;101294.88;4971108;28;19976;-90
2021/12/30 07:46:02;;;;;;;;;;;;;;;17.66;72.10;101304.31;4968042;28;20005;-92
2021/12/30 07:48:28;;;;;;;;;;;;;;;17.35;72.40;101301.00;4971213;28;19918;-91
2021/12/30 07:50:53;;;;;;;;;;;;;;;17.19;72.90;101328.50;4971779;28;19918;-91
2021/12/30 07:53:20;;;;;;;;;;;;;;;16.88;73.84;101326.94;4969223;28;19918;-90
2021/12/30 07:55:45;;;;;;;;;;;;;;;16.93;74.62;101317.47;4952955;28;19952;-91
2021/12/30 07:58:11;;;;;;;;;;;;;;;16.42;77.41;101311.69;4970820;28;19923;-90
2021/12/30 08:00:36;;;;;;;;;;;;;;;16.58;76.89;101323.38;4967630;28;19965;-85
2021/12/30 08:03:01;;;;;;;;;;;;;;;16.52;77.96;101307.38;4968328;28;20395;-89
2021/12/30 08:05:28;;;;;;;;;;;;;;;16.77;75.71;101311.22;4969595;28;19924;-92
2021/12/30 08:07:53;;;;;;;;;;;;;;;16.96;74.81;101322.72;4968901;28;19918;-89
2021/12/30 08:10:19;;;;;;;;;;;;;;;16.59;75.58;101322.41;4969519;28;19973;-89
2021/12/30 08:12:52;;;;;;;;;;;;;;;16.22;78.12;101319.31;4971336;28;19933;-88
2021/12/30 08:15:18;;;;;;;;;;;;;;;16.87;75.92;101331.53;4987021;28;19906;-91
2021/12/30 08:17:44;;;;;;;;;;;;;;;16.37;75.93;101330.25;4968443;28;20004;-91
2021/12/30 08:20:10;;;;;;;;;;;;;;;16.21;77.53;101331.19;4967046;28;19934;-92
2021/12/30 08:22:36;;;;;;;;;;;;;;;16.51;76.05;101332.94;4964835;28;20010;-91
2021/12/30 08:25:12;;;;;;;;;;;;;;;16.40;76.73;101350.03;4967986;28;19973;-90
2021/12/30 08:27:37;;;;;;;;;;;;;;;16.46;76.54;101344.16;4965966;28;19990;-91
2021/12/30 08:30:03;;;;;;;;;;;;;;;16.62;75.10;101355.00;4966594;28;20039;-91
2021/12/30 08:32:29;;;;;;;;;;;;;;;16.36;76.29;101347.59;4965468;28;19914;-89
2021/12/30 08:34:54;;;;;;;;;;;;;;;16.01;77.66;101372.53;4966929;28;19926;-90
2021/12/30 08:37:19;;;;;;;;;;;;;;;17.49;74.04;101352.00;4966123;28;19918;-92
2021/12/30 08:39:44;;;;;;;;;;;;;;;16.62;74.03;101335.88;4969893;28;20388;-91
2021/12/30 08:42:19;;;;;;;;;;;;;;;17.36;73.67;101350.09;4967228;28;19928;-90
2021/12/30 08:44:45;;;;;;;;;;;;;;;16.57;75.92;101354.38;4971133;28;19927;-94
2021/12/30 08:47:10;;;;;;;;;;;;;;;16.26;76.15;101356.38;4971302;28;20285;-88
2021/12/30 08:49:36;;;;;;;;;;;;;;;17.53;72.95;101359.03;4951593;28;20459;-91
2021/12/30 08:52:03;;;;;;;;;;;;;;;16.84;73.62;101356.31;4966234;28;19918;-90
2021/12/30 08:54:29;;;;;;;;;;;;;;;16.48;75.14;101365.91;4968507;28;19961;-89
2021/12/30 08:56:55;;;;;;;;;;;;;;;16.88;74.21;101363.38;4968500;28;19919;-92
2021/12/30 08:59:20;;;;;;;;;;;;;;;17.24;72.85;101369.19;4984841;28;19918;-90
2021/12/30 09:01:45;;;;;;;;;;;;;;;16.68;75.09;101370.06;4967039;28;19918;-89
2021/12/30 09:04:10;;;;;;;;;;;;;;;17.26;73.08;101373.59;4966279;28;19940;-89
2021/12/30 09:06:37;;;;;;;;;;;;;;;17.73;70.92;101371.31;4966777;28;19922;-91
2021/12/30 09:09:03;;;;;;;;;;;;;;;17.73;70.67;101381.41;4968812;28;19968;-89
2021/12/30 09:11:28;;;;;;;;;;;;;;;17.66;70.70;101369.97;4981134;28;19922;-94
2021/12/30 09:13:53;;;;;;;;;;;;;;;17.92;70.06;101368.22;4981439;28;19910;-92
2021/12/30 09:16:18;;;;;;;;;;;;;;;17.96;69.95;101367.00;4972441;28;19925;-90
2021/12/30 09:18:44;;;;;;;;;;;;;;;17.62;70.86;101372.06;4967757;28;19919;-91
2021/12/30 09:21:09;;;;;;;;;;;;;;;16.49;75.40;101367.69;4967754;28;20384;-92
2021/12/30 09:23:36;;;;;;;;;;;;;;;17.28;70.96;101385.28;4971493;28;19985;-90
2021/12/30 09:26:01;;;;;;;;;;;;;;;17.23;72.54;101376.53;4972795;28;19918;-90
2021/12/30 09:28:26;;;;;;;;;;;;;;;17.89;68.70;101388.44;4973269;28;19929;-90
2021/12/30 09:30:51;;;;;;;;;;;;;;;17.47;70.97;101395.00;4969876;28;19913;-92
2021/12/30 09:33:17;;;;;;;;;;;;;;;16.94;73.08;101401.22;4968698;28;19918;-92
2021/12/30 09:35:47;;;;;;;;;;;;;;;16.93;73.61;101387.66;4966805;28;19918;-92
2021/12/30 09:38:12;;;;;;;;;;;;;;;18.29;68.89;101387.47;4967405;28;19918;-94
2021/12/30 09:40:37;;;;;;;;;;;;;;;17.78;70.58;101409.31;4985650;28;20402;-91
2021/12/30 09:43:04;;;;;;;;;;;;;;;17.58;71.24;101400.59;4984259;28;19952;-93
2021/12/30 09:45:34;;;;;;;;;;;;;;;17.46;71.69;101404.19;4980363;28;23305;-91
2021/12/30 09:48:00;;;;;;;;;;;;;;;17.24;72.78;101402.91;4965749;28;20008;-91
2021/12/30 09:50:27;;;;;;;;;;;;;;;17.62;71.22;101417.69;4967014;28;19914;-93
2021/12/30 09:52:55;;;;;;;;;;;;;;;17.16;72.04;101405.25;4968761;28;19926;-93
2021/12/30 09:55:21;;;;;;;;;;;;;;;16.51;74.06;101405.81;4966123;28;19925;-87
2021/12/30 09:57:47;;;;;;;;;;;;;;;16.06;76.71;101419.50;4963785;28;19914;-90
2021/12/30 10:00:13;;;;;;;;;;;;;;;17.59;73.33;101413.31;4963024;28;19945;-88
2021/12/30 10:02:42;;;;;;;;;;;;;;;17.29;72.44;101427.22;4972507;28;19925;-87
2021/12/30 10:05:09;;;;;;;;;;;;;;;16.23;77.56;101427.53;4980534;28;20017;-87
2021/12/30 10:07:34;;;;;;;;;;;;;;;16.74;74.40;101415.25;4979489;28;20384;-89
2021/12/30 10:10:02;;;;;;;;;;;;;;;16.88;73.87;101423.47;4981898;28;19956;-89
2021/12/30 10:12:32;;;;;;;;;;;;;;;16.95;74.58;101416.66;4983879;28;19952;-89
2021/12/30 10:14:57;;;;;;;;;;;;;;;16.58;75.16;101431.78;4980443;28;19945;-90
2021/12/30 10:17:25;;;;;;;;;;;;;;;17.61;72.25;101422.28;4979781;28;20384;-90
2021/12/30 10:19:51;;;;;;;;;;;;;;;17.47;71.49;101411.41;4984121;28;19925;-89
2021/12/30 10:22:18;;;;;;;;;;;;;;;17.21;73.06;101419.50;4982204;28;19922;-90
2021/12/30 10:24:43;;;;;;;;;;;;;;;17.85;70.33;101436.13;4979428;28;19918;-90
2021/12/30 10:27:09;;;;;;;;;;;;;;;17.33;73.87;101423.25;4978360;28;20009;-88
2021/12/30 10:29:42;;;;;;;;;;;;;;;17.10;73.99;101425.66;4979487;28;20427;-89
2021/12/30 10:32:17;;;;;;;;;;;;;;;17.37;73.25;101424.81;4979131;28;19933;-89
2021/12/30 10:35:01;;;;;;;;;;;;;;;17.36;72.16;101423.97;4980309;28;19922;-87
2021/12/30 10:37:29;;;;;;;;;;;;;;;17.21;72.00;101430.44;4979626;28;19932;-88
2021/12/30 10:39:54;;;;;;;;;;;;;;;17.59;71.31;101429.72;4980722;28;19925;-88
2021/12/30 10:42:21;;;;;;;;;;;;;;;17.49;72.03;101432.19;4982106;28;19918;-88
2021/12/30 10:44:48;;;;;;;;;;;;;;;17.53;71.68;101425.53;4983926;28;19950;-87
2021/12/30 10:47:15;;;;;;;;;;;;;;;17.57;72.12;101433.53;4984209;28;19927;-87
2021/12/30 10:49:40;;;;;;;;;;;;;;;16.82;73.38;101424.72;4985299;28;19918;-87
2021/12/30 10:52:06;;;;;;;;;;;;;;;17.65;72.66;101415.63;4983513;28;19927;-86
2021/12/30 10:54:32;;;;;;;;;;;;;;;17.55;71.88;101414.50;4986179;28;19919;-89
2021/12/30 10:56:57;;;;;;;;;;;;;;;17.52;72.82;101429.25;4989916;28;19980;-87
2021/12/30 10:59:24;;;;;;;;;;;;;;;17.54;72.36;101424.56;4986354;28;19918;-88
2021/12/30 11:01:50;;;;;;;;;;;;;;;16.98;74.28;101430.13;4987231;28;20005;-90
2021/12/30 11:04:16;;;;;;;;;;;;;;;16.94;75.09;101425.81;4986801;28;19922;-88
2021/12/30 11:06:42;;;;;;;;;;;;;;;17.71;72.24;101430.75;4984212;28;19925;-88
2021/12/30 11:09:09;;;;;;;;;;;;;;;17.14;73.36;101409.97;4986184;28;20009;-88
2021/12/30 11:11:34;;;;;;;;;;;;;;;17.24;73.23;101424.78;4983168;28;19925;-88
2021/12/30 11:14:00;;;;;;;;;;;;;;;16.65;74.76;101438.56;4981361;28;19919;-88
2021/12/30 11:16:25;;;;;;;;;;;;;;;17.15;74.81;101420.78;4965662;28;19930;-87
2021/12/30 11:18:50;;;;;;;;;;;;;;;17.03;74.54;101426.19;4965744;28;19945;-87
2021/12/30 11:21:34;;;;;;;;;;;;;;;18.17;69.14;101449.47;4964447;28;19930;-87
2021/12/30 11:24:01;;;;;;;;;;;;;;;16.91;74.99;101456.09;4965361;28;19925;-87
2021/12/30 11:26:26;;;;;;;;;;;;;;;17.17;73.37;101470.78;4981345;28;19978;-86
2021/12/30 11:28:52;;;;;;;;;;;;;;;17.05;75.37;101459.78;4966036;28;19918;-87
2021/12/30 11:31:17;;;;;;;;;;;;;;;17.72;71.53;101462.59;4965643;28;19918;-88
2021/12/30 11:33:43;;;;;;;;;;;;;;;17.66;71.02;101465.75;4965347;28;19954;-87
2021/12/30 11:36:08;;;;;;;;;;;;;;;16.93;75.11;101469.66;4966134;28;19932;-87
2021/12/30 11:38:33;;;;;;;;;;;;;;;18.04;70.91;101457.69;4960050;29;19914;-85
2021/12/30 11:40:59;;;;;;;;;;;;;;;17.63;71.35;101455.00;4945337;29;20427;-88
2021/12/30 11:43:40;;;;;;;;;;;;;;;17.72;70.93;101470.81;4945263;29;19918;-88
2021/12/30 11:46:05;;;;;;;;;;;;;;;18.76;67.42;101461.78;4946007;29;19966;-90
2021/12/30 11:48:32;;;;;;;;;;;;;;;17.62;72.75;101467.81;4947422;29;19926;-90
2021/12/30 11:51:09;;;;;;;;;;;;;;;17.49;72.03;101459.56;4948995;29;19958;-89
2021/12/30 11:53:34;;;;;;;;;;;;;;;17.69;72.19;101450.03;4947378;29;19919;-87
2021/12/30 11:56:03;;;;;;;;;;;;;;;17.30;74.01;101457.19;4947655;29;19925;-91
2021/12/30 11:58:28;;;;;;;;;;;;;;;17.14;73.77;101448.25;4948513;29;19947;-89
2021/12/30 12:00:58;;;;;;;;;;;;;;;18.23;71.23;101453.66;4948511;29;20045;-87
2021/12/30 12:03:35;;;;;;;;;;;;;;;17.34;74.23;101455.97;4949006;29;19918;-91
2021/12/30 12:06:05;;;;;;;;;;;;;;;17.46;73.52;101451.56;4952036;28;19932;-89
2021/12/30 12:08:41;;;;;;;;;;;;;;;17.57;71.59;101463.63;4972259;28;19945;-90
2021/12/30 12:11:10;;;;;;;;;;;;;;;18.46;70.03;101462.09;4993648;28;19918;-89
2021/12/30 12:13:37;;;;;;;;;;;;;;;17.97;69.90;101455.50;4979155;28;19937;-92
2021/12/30 12:16:05;;;;;;;;;;;;;;;17.18;75.58;101467.06;4991711;28;19929;-89
2021/12/30 12:18:31;;;;;;;;;;;;;;;17.33;74.85;101462.44;4970930;28;20284;-91
2021/12/30 12:20:57;;;;;;;;;;;;;;;18.57;68.43;101464.97;4969177;28;19930;-90
2021/12/30 12:23:38;;;;;;;;;;;;;;;18.16;71.28;101457.81;4983059;28;19926;-91
2021/12/30 12:26:08;;;;;;;;;;;;;;;17.74;71.15;101467.97;4947175;29;19958;-93
2021/12/30 12:28:34;;;;;;;;;;;;;;;17.52;72.75;101456.59;4947222;29;19906;-91
2021/12/30 12:30:59;;;;;;;;;;;;;;;18.18;71.51;101462.19;4946822;29;19918;-90
2021/12/30 12:33:26;;;;;;;;;;;;;;;17.82;70.53;101455.50;4945710;29;19899;-90
2021/12/30 12:35:52;;;;;;;;;;;;;;;17.45;71.21;101459.84;4949801;28;19929;-92